sensor_id;sensor_type;location;lat;lon;timestamp;pressure;altitude;pressure_sealevel;temperature;humidity
61618;BME280;47518;51.776;9.370;2023-03-30T00:01:12;99556.59;;;11.77;78.56
61618;BME280;47518;51.776;9.370;2023-03-30T00:03:39;99539.72;;;11.88;77.95
61618;BME280;47518;51.776;9.370;2023-03-30T00:06:07;99538.69;;;11.89;77.92
61618;BME280;47518;51.776;9.370;2023-03-30T00:08:33;99542.88;;;11.91;78.08
61618;BME280;47518;51.776;9.370;2023-03-30T00:13:45;99528.81;;;11.81;78.71
61618;BME280;47518;51.776;9.370;2023-03-30T00:16:12;99510.19;;;11.85;77.78
61618;BME280;47518;51.776;9.370;2023-03-30T00:18:38;99503.41;;;11.74;78.42
61618;BME280;47518;51.776;9.370;2023-03-30T00:21:05;99504.59;;;11.58;79.60
61618;BME280;47518;51.776;9.370;2023-03-30T00:23:31;99508.75;;;11.48;80.03
61618;BME280;47518;51.776;9.370;2023-03-30T00:26:00;99500.00;;;11.59;79.79
61618;BME280;47518;51.776;9.370;2023-03-30T00:28:26;99512.31;;;11.48;79.67
61618;BME280;47518;51.776;9.370;2023-03-30T00:30:54;99508.91;;;11.39;80.26
61618;BME280;47518;51.776;9.370;2023-03-30T00:33:21;99502.00;;;11.37;80.90
61618;BME280;47518;51.776;9.370;2023-03-30T00:35:52;99507.03;;;11.40;80.45
61618;BME280;47518;51.776;9.370;2023-03-30T00:38:18;99487.75;;;11.42;80.05
61618;BME280;47518;51.776;9.370;2023-03-30T00:40:53;99494.28;;;11.47;80.32
61618;BME280;47518;51.776;9.370;2023-03-30T00:43:19;99493.00;;;11.43;80.22
61618;BME280;47518;51.776;9.370;2023-03-30T00:45:45;99481.09;;;11.51;79.37
61618;BME280;47518;51.776;9.370;2023-03-30T00:48:14;99481.31;;;11.49;79.96
61618;BME280;47518;51.776;9.370;2023-03-30T00:50:45;99478.13;;;11.39;80.83
61618;BME280;47518;51.776;9.370;2023-03-30T00:53:19;99475.69;;;11.57;79.33
61618;BME280;47518;51.776;9.370;2023-03-30T00:55:48;99470.94;;;11.73;79.68
61618;BME280;47518;51.776;9.370;2023-03-30T00:58:16;99459.59;;;11.69;79.41
61618;BME280;47518;51.776;9.370;2023-03-30T01:00:42;99476.53;;;11.58;79.47
61618;BME280;47518;51.776;9.370;2023-03-30T01:03:16;99460.78;;;11.47;79.66
61618;BME280;47518;51.776;9.370;2023-03-30T01:05:45;99457.66;;;11.56;79.51
61618;BME280;47518;51.776;9.370;2023-03-30T01:08:11;99459.41;;;11.71;79.30
61618;BME280;47518;51.776;9.370;2023-03-30T01:10:41;99447.03;;;11.61;79.53
61618;BME280;47518;51.776;9.370;2023-03-30T01:13:07;99453.72;;;11.65;78.94
61618;BME280;47518;51.776;9.370;2023-03-30T01:15:35;99450.75;;;11.47;79.47
61618;BME280;47518;51.776;9.370;2023-03-30T01:18:26;99439.78;;;11.34;79.39
61618;BME280;47518;51.776;9.370;2023-03-30T01:21:11;99433.50;;;11.33;80.16
61618;BME280;47518;51.776;9.370;2023-03-30T01:26:57;99426.16;;;11.27;80.33
61618;BME280;47518;51.776;9.370;2023-03-30T01:29:37;99422.56;;;11.20;78.95
61618;BME280;47518;51.776;9.370;2023-03-30T01:51:11;99405.06;;;11.43;79.16
61618;BME280;47518;51.776;9.370;2023-03-30T01:56:43;99386.88;;;11.56;77.76
61618;BME280;47518;51.776;9.370;2023-03-30T01:59:27;99393.19;;;11.63;77.66
61618;BME280;47518;51.776;9.370;2023-03-30T02:01:57;99381.34;;;11.84;75.74
61618;BME280;47518;51.776;9.370;2023-03-30T02:04:25;99372.06;;;11.79;75.97
61618;BME280;47518;51.776;9.370;2023-03-30T02:06:57;99378.19;;;11.87;75.86
61618;BME280;47518;51.776;9.370;2023-03-30T02:09:23;99371.69;;;11.88;75.49
61618;BME280;47518;51.776;9.370;2023-03-30T02:11:51;99373.59;;;11.88;75.44
61618;BME280;47518;51.776;9.370;2023-03-30T02:14:23;99384.28;;;11.83;75.47
61618;BME280;47518;51.776;9.370;2023-03-30T02:16:56;99371.28;;;11.85;75.69
61618;BME280;47518;51.776;9.370;2023-03-30T02:19:24;99368.34;;;11.80;75.29
61618;BME280;47518;51.776;9.370;2023-03-30T02:21:50;99362.50;;;11.83;75.36
61618;BME280;47518;51.776;9.370;2023-03-30T02:24:20;99350.09;;;11.80;75.24
61618;BME280;47518;51.776;9.370;2023-03-30T02:26:48;99357.25;;;11.81;75.54
61618;BME280;47518;51.776;9.370;2023-03-30T02:29:16;99336.69;;;11.72;75.37
61618;BME280;47518;51.776;9.370;2023-03-30T02:31:44;99339.63;;;11.71;76.24
61618;BME280;47518;51.776;9.370;2023-03-30T02:43:06;99338.56;;;11.72;76.10
61618;BME280;47518;51.776;9.370;2023-03-30T02:45:50;99337.94;;;11.76;76.14
61618;BME280;47518;51.776;9.370;2023-03-30T02:48:41;99327.31;;;11.81;75.17
61618;BME280;47518;51.776;9.370;2023-03-30T02:51:29;99331.69;;;11.95;74.67
61618;BME280;47518;51.776;9.370;2023-03-30T03:07:03;99343.41;;;12.03;73.33
61618;BME280;47518;51.776;9.370;2023-03-30T03:09:31;99339.25;;;11.93;74.33
61618;BME280;47518;51.776;9.370;2023-03-30T03:11:57;99341.34;;;12.05;73.33
61618;BME280;47518;51.776;9.370;2023-03-30T03:14:22;99346.59;;;11.93;73.19
61618;BME280;47518;51.776;9.370;2023-03-30T03:16:50;99365.41;;;12.01;74.35
61618;BME280;47518;51.776;9.370;2023-03-30T03:19:15;99361.22;;;11.98;73.60
61618;BME280;47518;51.776;9.370;2023-03-30T03:21:41;99353.91;;;11.99;74.07
61618;BME280;47518;51.776;9.370;2023-03-30T03:24:07;99352.22;;;11.91;74.24
61618;BME280;47518;51.776;9.370;2023-03-30T03:26:32;99347.00;;;11.96;73.99
61618;BME280;47518;51.776;9.370;2023-03-30T03:28:58;99334.22;;;11.97;73.33
61618;BME280;47518;51.776;9.370;2023-03-30T03:31:23;99326.88;;;11.91;74.00
61618;BME280;47518;51.776;9.370;2023-03-30T03:34:01;99316.56;;;11.66;75.23
61618;BME280;47518;51.776;9.370;2023-03-30T03:36:27;99308.59;;;11.58;75.56
61618;BME280;47518;51.776;9.370;2023-03-30T03:38:53;99306.53;;;11.74;74.40
61618;BME280;47518;51.776;9.370;2023-03-30T03:41:18;99310.06;;;11.67;75.22
61618;BME280;47518;51.776;9.370;2023-03-30T03:43:44;99298.38;;;11.80;74.53
61618;BME280;47518;51.776;9.370;2023-03-30T03:46:16;99295.22;;;11.70;73.86
61618;BME280;47518;51.776;9.370;2023-03-30T03:48:52;99299.81;;;11.69;74.27
61618;BME280;47518;51.776;9.370;2023-03-30T03:51:17;99287.66;;;11.65;74.09
61618;BME280;47518;51.776;9.370;2023-03-30T03:53:43;99289.34;;;11.73;74.06
61618;BME280;47518;51.776;9.370;2023-03-30T03:56:08;99284.72;;;11.74;73.99
61618;BME280;47518;51.776;9.370;2023-03-30T03:58:33;99283.06;;;11.73;74.14
61618;BME280;47518;51.776;9.370;2023-03-30T04:01:00;99281.59;;;11.77;73.73
61618;BME280;47518;51.776;9.370;2023-03-30T04:03:27;99269.66;;;11.78;73.71
61618;BME280;47518;51.776;9.370;2023-03-30T04:05:53;99257.97;;;11.84;73.32
61618;BME280;47518;51.776;9.370;2023-03-30T04:08:18;99261.31;;;11.92;72.40
61618;BME280;47518;51.776;9.370;2023-03-30T04:10:43;99263.16;;;11.92;72.30
61618;BME280;47518;51.776;9.370;2023-03-30T04:13:09;99265.28;;;11.90;72.88
61618;BME280;47518;51.776;9.370;2023-03-30T04:15:35;99248.09;;;11.96;72.11
61618;BME280;47518;51.776;9.370;2023-03-30T04:18:00;99253.75;;;11.88;72.59
61618;BME280;47518;51.776;9.370;2023-03-30T04:20:27;99255.00;;;11.92;72.31
61618;BME280;47518;51.776;9.370;2023-03-30T04:22:55;99256.06;;;11.97;72.06
61618;BME280;47518;51.776;9.370;2023-03-30T04:25:23;99260.44;;;11.98;71.54
61618;BME280;47518;51.776;9.370;2023-03-30T04:27:51;99265.69;;;12.07;71.42
61618;BME280;47518;51.776;9.370;2023-03-30T04:30:21;99255.63;;;12.07;70.77
61618;BME280;47518;51.776;9.370;2023-03-30T04:32:47;99256.06;;;12.04;71.01
61618;BME280;47518;51.776;9.370;2023-03-30T04:35:30;99249.75;;;12.04;70.99
61618;BME280;47518;51.776;9.370;2023-03-30T04:37:56;99257.69;;;12.12;70.35
61618;BME280;47518;51.776;9.370;2023-03-30T04:40:22;99256.69;;;12.00;71.45
61618;BME280;47518;51.776;9.370;2023-03-30T04:42:48;99262.53;;;12.16;70.44
61618;BME280;47518;51.776;9.370;2023-03-30T04:45:23;99252.47;;;12.04;71.59
61618;BME280;47518;51.776;9.370;2023-03-30T04:47:48;99266.94;;;12.11;70.31
61618;BME280;47518;51.776;9.370;2023-03-30T04:50:23;99245.34;;;12.03;70.25
61618;BME280;47518;51.776;9.370;2023-03-30T04:52:48;99253.97;;;12.06;71.04
61618;BME280;47518;51.776;9.370;2023-03-30T04:55:14;99241.78;;;12.09;70.50
61618;BME280;47518;51.776;9.370;2023-03-30T04:57:39;99239.88;;;12.22;70.17
61618;BME280;47518;51.776;9.370;2023-03-30T05:00:06;99240.94;;;12.02;70.01
61618;BME280;47518;51.776;9.370;2023-03-30T05:02:36;99231.13;;;12.07;71.11
61618;BME280;47518;51.776;9.370;2023-03-30T05:05:01;99223.13;;;12.12;70.02
61618;BME280;47518;51.776;9.370;2023-03-30T05:07:39;99220.63;;;12.11;69.80
61618;BME280;47518;51.776;9.370;2023-03-30T05:10:05;99224.78;;;12.13;70.04
61618;BME280;47518;51.776;9.370;2023-03-30T05:12:34;99217.72;;;12.06;70.31
61618;BME280;47518;51.776;9.370;2023-03-30T05:15:23;99216.88;;;12.05;70.07
61618;BME280;47518;51.776;9.370;2023-03-30T05:17:49;99223.09;;;12.25;69.70
61618;BME280;47518;51.776;9.370;2023-03-30T05:20:15;99230.69;;;12.17;70.29
61618;BME280;47518;51.776;9.370;2023-03-30T05:22:44;99227.53;;;12.13;69.39
61618;BME280;47518;51.776;9.370;2023-03-30T05:25:23;99228.97;;;12.22;69.45
61618;BME280;47518;51.776;9.370;2023-03-30T05:28:01;99217.66;;;12.19;69.38
61618;BME280;47518;51.776;9.370;2023-03-30T05:30:30;99208.00;;;12.30;69.42
61618;BME280;47518;51.776;9.370;2023-03-30T05:33:06;99214.91;;;12.32;69.57
61618;BME280;47518;51.776;9.370;2023-03-30T05:38:34;99219.09;;;12.35;69.63
61618;BME280;47518;51.776;9.370;2023-03-30T05:41:00;99221.75;;;12.48;68.67
61618;BME280;47518;51.776;9.370;2023-03-30T05:43:33;99222.53;;;12.62;68.24
61618;BME280;47518;51.776;9.370;2023-03-30T05:46:02;99219.56;;;12.76;68.09
61618;BME280;47518;51.776;9.370;2023-03-30T05:48:28;99211.09;;;12.84;67.00
61618;BME280;47518;51.776;9.370;2023-03-30T05:50:55;99215.44;;;12.99;66.38
61618;BME280;47518;51.776;9.370;2023-03-30T05:53:22;99218.13;;;13.05;66.77
61618;BME280;47518;51.776;9.370;2023-03-30T05:55:48;99223.41;;;13.00;66.17
61618;BME280;47518;51.776;9.370;2023-03-30T05:58:15;99212.53;;;12.94;66.92
61618;BME280;47518;51.776;9.370;2023-03-30T06:00:41;99215.16;;;13.07;67.03
61618;BME280;47518;51.776;9.370;2023-03-30T06:03:13;99216.66;;;13.03;66.97
61618;BME280;47518;51.776;9.370;2023-03-30T06:05:39;99219.91;;;13.18;66.97
61618;BME280;47518;51.776;9.370;2023-03-30T06:08:11;99206.88;;;13.27;66.87
61618;BME280;47518;51.776;9.370;2023-03-30T06:25:13;99207.16;;;12.80;69.24
61618;BME280;47518;51.776;9.370;2023-03-30T06:30:55;99209.09;;;13.05;67.86
61618;BME280;47518;51.776;9.370;2023-03-30T06:33:25;99213.63;;;13.24;67.84
61618;BME280;47518;51.776;9.370;2023-03-30T06:35:52;99210.50;;;13.14;67.89
61618;BME280;47518;51.776;9.370;2023-03-30T06:38:20;99215.75;;;13.15;67.96
61618;BME280;47518;51.776;9.370;2023-03-30T06:40:46;99217.88;;;13.20;67.94
61618;BME280;47518;51.776;9.370;2023-03-30T06:43:19;99220.75;;;13.25;67.75
61618;BME280;47518;51.776;9.370;2023-03-30T06:45:54;99230.84;;;13.18;68.24
61618;BME280;47518;51.776;9.370;2023-03-30T06:48:23;99218.69;;;13.14;69.10
61618;BME280;47518;51.776;9.370;2023-03-30T06:51:04;99220.16;;;13.17;69.05
61618;BME280;47518;51.776;9.370;2023-03-30T06:53:31;99221.69;;;13.06;69.76
61618;BME280;47518;51.776;9.370;2023-03-30T06:55:59;99220.63;;;13.07;69.74
61618;BME280;47518;51.776;9.370;2023-03-30T06:58:26;99222.25;;;13.21;69.35
61618;BME280;47518;51.776;9.370;2023-03-30T07:00:52;99205.59;;;13.29;69.58
61618;BME280;47518;51.776;9.370;2023-03-30T07:03:27;99211.84;;;13.36;69.21
61618;BME280;47518;51.776;9.370;2023-03-30T07:05:57;99210.22;;;13.29;69.94
61618;BME280;47518;51.776;9.370;2023-03-30T07:08:42;99202.88;;;13.29;69.57
61618;BME280;47518;51.776;9.370;2023-03-30T07:11:28;99199.81;;;13.12;70.44
61618;BME280;47518;51.776;9.370;2023-03-30T07:14:50;99205.38;;;12.99;71.66
61618;BME280;47518;51.776;9.370;2023-03-30T07:17:18;99206.59;;;13.03;71.63
61618;BME280;47518;51.776;9.370;2023-03-30T07:19:50;99195.06;;;13.01;71.38
61618;BME280;47518;51.776;9.370;2023-03-30T07:22:19;99193.56;;;13.05;72.12
61618;BME280;47518;51.776;9.370;2023-03-30T07:24:46;99197.47;;;13.16;71.70
61618;BME280;47518;51.776;9.370;2023-03-30T07:27:12;99195.13;;;13.26;70.91
61618;BME280;47518;51.776;9.370;2023-03-30T07:29:40;99201.63;;;13.32;70.69
61618;BME280;47518;51.776;9.370;2023-03-30T07:32:21;99204.00;;;13.47;70.20
61618;BME280;47518;51.776;9.370;2023-03-30T07:35:05;99209.94;;;13.43;70.25
61618;BME280;47518;51.776;9.370;2023-03-30T07:37:46;99216.63;;;13.09;72.09
61618;BME280;47518;51.776;9.370;2023-03-30T07:40:19;99207.56;;;13.22;71.63
61618;BME280;47518;51.776;9.370;2023-03-30T07:42:51;99205.50;;;13.11;71.81
61618;BME280;47518;51.776;9.370;2023-03-30T07:45:30;99209.16;;;13.30;71.46
61618;BME280;47518;51.776;9.370;2023-03-30T07:48:16;99201.28;;;13.22;71.25
61618;BME280;47518;51.776;9.370;2023-03-30T07:51:04;99216.09;;;13.32;71.06
61618;BME280;47518;51.776;9.370;2023-03-30T07:53:34;99222.16;;;13.34;71.56
61618;BME280;47518;51.776;9.370;2023-03-30T07:56:01;99235.09;;;13.46;71.43
61618;BME280;47518;51.776;9.370;2023-03-30T07:58:31;99237.03;;;13.38;71.27
61618;BME280;47518;51.776;9.370;2023-03-30T08:00:57;99242.94;;;13.35;72.33
61618;BME280;47518;51.776;9.370;2023-03-30T08:03:34;99225.19;;;13.51;71.71
61618;BME280;47518;51.776;9.370;2023-03-30T08:06:05;99238.78;;;13.58;71.43
61618;BME280;47518;51.776;9.370;2023-03-30T08:08:32;99232.25;;;13.84;70.43
61618;BME280;47518;51.776;9.370;2023-03-30T08:11:07;99237.25;;;13.68;71.69
61618;BME280;47518;51.776;9.370;2023-03-30T08:13:40;99235.44;;;13.56;72.60
61618;BME280;47518;51.776;9.370;2023-03-30T08:16:14;99226.31;;;13.68;72.00
61618;BME280;47518;51.776;9.370;2023-03-30T08:18:46;99224.09;;;13.59;71.90
61618;BME280;47518;51.776;9.370;2023-03-30T08:24:46;99215.25;;;13.82;72.23
61618;BME280;47518;51.776;9.370;2023-03-30T08:27:19;99213.81;;;13.79;71.90
61618;BME280;47518;51.776;9.370;2023-03-30T08:29:48;99221.38;;;13.77;72.37
61618;BME280;47518;51.776;9.370;2023-03-30T08:32:15;99216.66;;;13.66;71.90
61618;BME280;47518;51.776;9.370;2023-03-30T08:34:43;99211.41;;;13.89;72.10
61618;BME280;47518;51.776;9.370;2023-03-30T08:37:12;99218.84;;;14.00;71.54
61618;BME280;47518;51.776;9.370;2023-03-30T08:39:37;99209.00;;;14.18;70.97
61618;BME280;47518;51.776;9.370;2023-03-30T08:42:45;99219.63;;;14.08;71.74
61618;BME280;47518;51.776;9.370;2023-03-30T08:45:15;99201.72;;;14.30;70.91
61618;BME280;47518;51.776;9.370;2023-03-30T08:47:44;99196.44;;;14.53;69.84
61618;BME280;47518;51.776;9.370;2023-03-30T08:50:31;99198.94;;;14.37;70.88
61618;BME280;47518;51.776;9.370;2023-03-30T08:53:06;99205.81;;;14.76;69.78
61618;BME280;47518;51.776;9.370;2023-03-30T08:55:39;99196.00;;;15.16;68.70
61618;BME280;47518;51.776;9.370;2023-03-30T09:11:55;99183.63;;;15.67;65.55
61618;BME280;47518;51.776;9.370;2023-03-30T09:14:35;99173.38;;;15.74;66.48
61618;BME280;47518;51.776;9.370;2023-03-30T09:17:23;99164.41;;;15.56;66.45
61618;BME280;47518;51.776;9.370;2023-03-30T09:20:21;99168.56;;;15.46;66.91
61618;BME280;47518;51.776;9.370;2023-03-30T09:22:56;99176.41;;;15.31;67.84
61618;BME280;47518;51.776;9.370;2023-03-30T09:26:01;99157.00;;;14.91;69.83
61618;BME280;47518;51.776;9.370;2023-03-30T09:32:29;99170.84;;;15.08;71.95
61618;BME280;47518;51.776;9.370;2023-03-30T09:35:22;99178.16;;;15.26;70.38
61618;BME280;47518;51.776;9.370;2023-03-30T09:38:28;99170.22;;;14.94;69.93
61618;BME280;47518;51.776;9.370;2023-03-30T09:41:46;99177.72;;;14.99;69.25
61618;BME280;47518;51.776;9.370;2023-03-30T09:44:33;99168.63;;;15.16;67.73
61618;BME280;47518;51.776;9.370;2023-03-30T10:00:30;99169.56;;;15.10;68.49
61618;BME280;47518;51.776;9.370;2023-03-30T10:02:59;99185.63;;;15.07;69.77
61618;BME280;47518;51.776;9.370;2023-03-30T10:05:36;99195.44;;;14.66;75.26
61618;BME280;47518;51.776;9.370;2023-03-30T10:08:05;99204.06;;;13.90;81.75
61618;BME280;47518;51.776;9.370;2023-03-30T10:10:34;99217.22;;;13.50;82.73
61618;BME280;47518;51.776;9.370;2023-03-30T10:13:11;99199.53;;;13.27;86.04
61618;BME280;47518;51.776;9.370;2023-03-30T10:15:39;99203.19;;;13.08;86.62
61618;BME280;47518;51.776;9.370;2023-03-30T10:21:16;99195.16;;;13.20;82.54
61618;BME280;47518;51.776;9.370;2023-03-30T10:24:03;99206.06;;;13.51;83.46
61618;BME280;47518;51.776;9.370;2023-03-30T10:26:29;99203.22;;;13.64;83.97
61618;BME280;47518;51.776;9.370;2023-03-30T10:29:15;99201.03;;;13.55;80.27
61618;BME280;47518;51.776;9.370;2023-03-30T10:32:01;99214.78;;;13.66;78.99
61618;BME280;47518;51.776;9.370;2023-03-30T10:40:52;99238.19;;;13.56;76.15
61618;BME280;47518;51.776;9.370;2023-03-30T10:43:24;99237.09;;;13.32;80.54
61618;BME280;47518;51.776;9.370;2023-03-30T10:45:58;99240.41;;;12.96;80.32
61618;BME280;47518;51.776;9.370;2023-03-30T10:49:16;99262.47;;;12.43;83.89
61618;BME280;47518;51.776;9.370;2023-03-30T10:52:00;99268.00;;;11.96;86.08
61618;BME280;47518;51.776;9.370;2023-03-30T10:55:13;99239.91;;;11.50;87.36
61618;BME280;47518;51.776;9.370;2023-03-30T10:58:10;99220.03;;;11.49;85.91
61618;BME280;47518;51.776;9.370;2023-03-30T11:03:57;99245.16;;;11.71;84.72
61618;BME280;47518;51.776;9.370;2023-03-30T11:06:32;99244.09;;;11.79;82.98
61618;BME280;47518;51.776;9.370;2023-03-30T11:09:04;99239.69;;;12.11;81.21
61618;BME280;47518;51.776;9.370;2023-03-30T11:11:43;99234.47;;;12.67;81.16
61618;BME280;47518;51.776;9.370;2023-03-30T11:14:17;99245.63;;;13.42;77.85
61618;BME280;47518;51.776;9.370;2023-03-30T11:16:50;99241.16;;;13.23;76.84
61618;BME280;47518;51.776;9.370;2023-03-30T11:19:31;99246.38;;;13.56;76.96
61618;BME280;47518;51.776;9.370;2023-03-30T11:25:29;99233.88;;;15.73;67.35
61618;BME280;47518;51.776;9.370;2023-03-30T11:28:09;99228.31;;;16.03;66.89
61618;BME280;47518;51.776;9.370;2023-03-30T11:30:53;99234.94;;;15.60;66.55
61618;BME280;47518;51.776;9.370;2023-03-30T11:33:34;99232.25;;;15.42;66.37
61618;BME280;47518;51.776;9.370;2023-03-30T11:36:09;99225.16;;;14.93;67.56
61618;BME280;47518;51.776;9.370;2023-03-30T11:38:54;99215.22;;;14.98;68.78
61618;BME280;47518;51.776;9.370;2023-03-30T11:41:51;99209.94;;;15.68;67.91
61618;BME280;47518;51.776;9.370;2023-03-30T11:44:23;99210.28;;;15.72;67.88
61618;BME280;47518;51.776;9.370;2023-03-30T11:47:09;99220.09;;;15.38;67.54
61618;BME280;47518;51.776;9.370;2023-03-30T11:55:40;99243.69;;;14.61;67.77
61618;BME280;47518;51.776;9.370;2023-03-30T11:58:26;99300.81;;;14.00;72.51
61618;BME280;47518;51.776;9.370;2023-03-30T12:04:22;99298.25;;;11.21;92.16
61618;BME280;47518;51.776;9.370;2023-03-30T12:07:12;99298.63;;;11.04;92.51
61618;BME280;47518;51.776;9.370;2023-03-30T12:13:26;99267.84;;;13.07;81.87
61618;BME280;47518;51.776;9.370;2023-03-30T12:16:05;99273.94;;;13.09;82.79
61618;BME280;47518;51.776;9.370;2023-03-30T12:21:35;99240.84;;;13.62;77.75
61618;BME280;47518;51.776;9.370;2023-03-30T12:27:02;99225.47;;;12.67;80.55
61618;BME280;47518;51.776;9.370;2023-03-30T12:29:50;99222.50;;;12.68;81.44
61618;BME280;47518;51.776;9.370;2023-03-30T12:32:33;99241.97;;;12.78;79.99
61618;BME280;47518;51.776;9.370;2023-03-30T12:34:59;99246.69;;;13.03;78.68
61618;BME280;47518;51.776;9.370;2023-03-30T12:37:40;99243.00;;;13.54;78.92
61618;BME280;47518;51.776;9.370;2023-03-30T12:40:16;99237.78;;;13.52;77.23
61618;BME280;47518;51.776;9.370;2023-03-30T12:43:13;99241.69;;;13.88;75.83
61618;BME280;47518;51.776;9.370;2023-03-30T12:45:52;99239.66;;;14.45;72.03
61618;BME280;47518;51.776;9.370;2023-03-30T12:48:54;99240.94;;;14.79;69.90
61618;BME280;47518;51.776;9.370;2023-03-30T12:51:42;99231.91;;;15.08;68.74
61618;BME280;47518;51.776;9.370;2023-03-30T12:57:56;99238.66;;;14.76;67.70
61618;BME280;47518;51.776;9.370;2023-03-30T13:03:53;99251.25;;;14.40;67.20
61618;BME280;47518;51.776;9.370;2023-03-30T13:06:29;99238.94;;;14.31;67.03
61618;BME280;47518;51.776;9.370;2023-03-30T13:14:44;99243.63;;;14.49;65.98
61618;BME280;47518;51.776;9.370;2023-03-30T13:17:17;99229.13;;;14.23;64.85
61618;BME280;47518;51.776;9.370;2023-03-30T13:19:46;99238.63;;;14.02;65.67
61618;BME280;47518;51.776;9.370;2023-03-30T13:22:30;99245.19;;;14.38;64.35
61618;BME280;47518;51.776;9.370;2023-03-30T13:27:35;99249.72;;;14.81;61.18
61618;BME280;47518;51.776;9.370;2023-03-30T13:30:12;99232.81;;;14.72;59.64
61618;BME280;47518;51.776;9.370;2023-03-30T13:36:04;99239.75;;;15.46;59.52
61618;BME280;47518;51.776;9.370;2023-03-30T13:38:41;99247.38;;;15.74;56.21
61618;BME280;47518;51.776;9.370;2023-03-30T13:41:37;99234.72;;;15.73;56.68
61618;BME280;47518;51.776;9.370;2023-03-30T13:50:21;99260.44;;;15.31;58.73
61618;BME280;47518;51.776;9.370;2023-03-30T13:52:47;99253.63;;;15.22;59.47
61618;BME280;47518;51.776;9.370;2023-03-30T13:55:27;99244.88;;;15.43;58.71
61618;BME280;47518;51.776;9.370;2023-03-30T13:58:00;99241.03;;;15.32;59.63
61618;BME280;47518;51.776;9.370;2023-03-30T14:03:25;99272.16;;;14.89;60.88
61618;BME280;47518;51.776;9.370;2023-03-30T14:05:51;99289.06;;;14.43;65.82
61618;BME280;47518;51.776;9.370;2023-03-30T14:08:16;99292.22;;;13.79;68.41
61618;BME280;47518;51.776;9.370;2023-03-30T14:10:46;99282.47;;;13.26;74.15
61618;BME280;47518;51.776;9.370;2023-03-30T14:13:12;99280.25;;;13.03;73.89
61618;BME280;47518;51.776;9.370;2023-03-30T14:15:38;99288.19;;;13.11;72.17
61618;BME280;47518;51.776;9.370;2023-03-30T14:18:04;99292.59;;;13.19;72.10
61618;BME280;47518;51.776;9.370;2023-03-30T14:26:10;99285.81;;;13.28;66.22
61618;BME280;47518;51.776;9.370;2023-03-30T14:28:36;99281.63;;;13.32;66.57
61618;BME280;47518;51.776;9.370;2023-03-30T14:31:09;99282.66;;;13.31;65.09
61618;BME280;47518;51.776;9.370;2023-03-30T14:33:38;99285.69;;;13.48;66.50
61618;BME280;47518;51.776;9.370;2023-03-30T14:36:05;99294.25;;;13.58;63.38
61618;BME280;47518;51.776;9.370;2023-03-30T14:38:35;99299.75;;;13.52;63.13
61618;BME280;47518;51.776;9.370;2023-03-30T14:41:12;99303.88;;;13.61;63.09
61618;BME280;47518;51.776;9.370;2023-03-30T14:43:39;99305.69;;;13.73;63.96
61618;BME280;47518;51.776;9.370;2023-03-30T14:46:08;99316.03;;;13.65;64.29
61618;BME280;47518;51.776;9.370;2023-03-30T14:48:37;99314.34;;;13.64;64.57
61618;BME280;47518;51.776;9.370;2023-03-30T14:51:17;99321.31;;;13.28;67.47
61618;BME280;47518;51.776;9.370;2023-03-30T14:53:43;99330.88;;;12.93;69.13
61618;BME280;47518;51.776;9.370;2023-03-30T14:56:09;99338.91;;;12.81;71.35
61618;BME280;47518;51.776;9.370;2023-03-30T14:58:35;99340.47;;;12.44;73.96
61618;BME280;47518;51.776;9.370;2023-03-30T15:01:04;99356.59;;;12.25;75.48
61618;BME280;47518;51.776;9.370;2023-03-30T15:03:32;99354.75;;;12.19;73.53
61618;BME280;47518;51.776;9.370;2023-03-30T15:06:14;99357.88;;;12.30;73.11
61618;BME280;47518;51.776;9.370;2023-03-30T15:08:49;99353.66;;;12.27;71.39
61618;BME280;47518;51.776;9.370;2023-03-30T15:11:24;99360.81;;;12.21;71.73
61618;BME280;47518;51.776;9.370;2023-03-30T15:13:53;99360.41;;;12.18;71.54
61618;BME280;47518;51.776;9.370;2023-03-30T15:16:32;99366.25;;;12.02;73.17
61618;BME280;47518;51.776;9.370;2023-03-30T15:19:25;99366.06;;;12.10;73.09
61618;BME280;47518;51.776;9.370;2023-03-30T15:21:55;99364.59;;;12.07;73.10
61618;BME280;47518;51.776;9.370;2023-03-30T15:24:25;99358.94;;;12.22;73.31
61618;BME280;47518;51.776;9.370;2023-03-30T15:26:54;99370.81;;;12.67;74.65
61618;BME280;47518;51.776;9.370;2023-03-30T15:29:21;99363.53;;;13.19;72.15
61618;BME280;47518;51.776;9.370;2023-03-30T15:31:58;99367.97;;;13.20;71.05
61618;BME280;47518;51.776;9.370;2023-03-30T15:34:24;99363.66;;;13.37;70.78
61618;BME280;47518;51.776;9.370;2023-03-30T15:36:52;99353.97;;;13.41;69.85
61618;BME280;47518;51.776;9.370;2023-03-30T15:39:21;99358.75;;;13.53;70.55
61618;BME280;47518;51.776;9.370;2023-03-30T15:41:57;99358.97;;;13.51;69.26
61618;BME280;47518;51.776;9.370;2023-03-30T15:44:26;99355.47;;;13.76;68.52
61618;BME280;47518;51.776;9.370;2023-03-30T15:46:56;99359.97;;;14.20;65.63
61618;BME280;47518;51.776;9.370;2023-03-30T15:49:27;99361.19;;;13.99;67.36
61618;BME280;47518;51.776;9.370;2023-03-30T15:51:57;99360.94;;;14.00;67.76
61618;BME280;47518;51.776;9.370;2023-03-30T15:54:31;99352.03;;;13.87;68.61
61618;BME280;47518;51.776;9.370;2023-03-30T15:59:45;99359.41;;;13.55;70.17
61618;BME280;47518;51.776;9.370;2023-03-30T16:02:15;99343.59;;;13.25;70.76
61618;BME280;47518;51.776;9.370;2023-03-30T16:04:41;99345.88;;;13.28;70.91
61618;BME280;47518;51.776;9.370;2023-03-30T16:07:13;99342.72;;;13.31;69.78
61618;BME280;47518;51.776;9.370;2023-03-30T16:09:39;99341.06;;;13.17;72.33
61618;BME280;47518;51.776;9.370;2023-03-30T16:12:05;99336.44;;;13.24;71.62
61618;BME280;47518;51.776;9.370;2023-03-30T16:14:31;99336.25;;;13.12;71.13
61618;BME280;47518;51.776;9.370;2023-03-30T16:16:56;99337.06;;;13.26;71.15
61618;BME280;47518;51.776;9.370;2023-03-30T16:19:22;99341.75;;;13.51;69.42
61618;BME280;47518;51.776;9.370;2023-03-30T16:21:47;99333.56;;;13.82;70.74
61618;BME280;47518;51.776;9.370;2023-03-30T16:24:13;99332.06;;;14.11;68.15
61618;BME280;47518;51.776;9.370;2023-03-30T16:26:41;99340.47;;;14.35;66.73